West Pittsburg, Pennsylvania
Current Conditions -  °F | °C
As of 7:47 PM on Saturday 25 Oct 2014 (Local Time) from KBVI Reporting Station
Clear Clear  
Wind Chill: 16°   Ceiling: Unl
Heat Index: 16°   Visibility: 10mi
Dew Point: 11°   Wind: 9mph
Humidity: 72%   Direction: 240°WSW
Pressure: 29.75"   Gusts: NA
Location:  40.93°N, 80.36°W
Report Text: KBVI 252347Z 24008KT 10SM CLR 16/11 A2975
Loading
Personal Weather Stations






























Interactive Weather Map
Tropical Storm Tracking
New forecast layout! Learn more

10-Day Weather Forecast

Advertisements
Track Severe Weather on mobile